Language selection

Weather shortcuts

Strait of Georgia - south of Nanaimo: Past 24 Hour Conditions

 

La Perouse Bank - 46206

01:00 AM PDT 14 April 2024Buoy position: 48.83N 126.0W
Disclaimer

This table is a summary of hourly weather conditions for the past 24 hours.
Please note that these observations might not always be representative of weather conditions over their associated marine area.

Date / Time
(PDT)
Wind(knots) Wave height(m) Wave period(s) Pressure(kPa) Air tempC) Water tempC)
14 April 2024
1:00 NW 17 gusts 20 2.14 8.0 101.5 10 10
0:00 NW 19 gusts 23 2.06 6.9 101.4 10 10
13 April 2024
23:00 NW 17 gusts 21 1.97 7.1 101.4 10 10
22:00 NW 15 gusts 18 1.74 8.7 101.5 10 10
21:00 NW 14 gusts 17 1.77 9.5 101.5 10 10
20:00 NW 15 gusts 17 1.65 9.5 101.5 10 10
19:00 NW 14 gusts 17 1.49 9.5 101.4 11 10
18:00 NW 15 gusts 18 1.38 6.9 101.5 11 10
17:00 NW 13 gusts 18 1.48 9.5 101.5 11 10
16:00 NW 12 gusts 16 1.48 9.5 101.5 10 10
15:00 NW 8 gusts 10 1.59 10.0 101.5 10 11
14:00 WNW 6 gusts 10 1.85 10.0 101.5 10 11
13:00 W 3 gusts 5 1.69 9.5 101.6 10 10
12:00 WSW 1 gusts 3 1.79 10.0 101.6 10 10
11:00 NNW 2 gusts 4 1.93 10.5 101.6 10 10
10:00 NE 2 gusts 4 1.89 10.5 101.6 9 10
9:00 NNE 5 gusts 6 1.84 10.5 101.5 9 10
8:00 NNE 6 gusts 8 1.96 10.5 101.4 9 10
7:00 NW 8 gusts 11 1.93 10.5 101.4 9 10
6:00 NW 11 gusts 14 2.09 10.5 101.4 9 10
5:00 NNW 13 gusts 16 1.99 10.5 101.4 10 10
4:00 NNW 14 gusts 17 1.90 11.1 101.3 10 10
3:00 NW 12 gusts 15 1.89 10.0 101.3 10 10
2:00 NW 12 gusts 15 2.02 10.0 101.3 10 10
1:00 NNW 12 gusts 15 2.20 7.7 101.3 10 10

Zoom-in to make a selection

Map of Pacific - South Coast marine weather areas South Nomad - 46036 Sentry Shoal - 46131 South Brooks - 46132 Halibut Bank - 46146 South Moresby - 46147 South Hecate Strait - 46185 West Sea Otter - 46204 La Perouse Bank - 46206 East Dellwood - 46207 Georgia Strait - 46303 English Bay – 46304 Discovery Island Esquimalt Harbour Kelp Reefs Malahat Race Rocks Lightstation Saturna Island Sheringham Point University of Victoria Victoria Gonzales Victoria Int'l Airport Ballenas Islands Campbell River Airport Comox Airport Entrance Island Fanny Island Nanaimo Airport Port Hardy Airport Sisters Islets Estevan Point Port Alberni Sartine Island Solander Island Tofino Airport Grief Point Howe Sound - Pam Rocks Powell River Airport Sechelt Squamish Airport Cape St.James Bella Bella Airport Bella Coola Airport Cathedral Point Herbert Island Point Atkinson Sand Heads Lightstation Tsawwassen Ferry Terminal Vancouver Int'l Airport Vancouver Harbour West Vancouver
Legend:
buoy Buoy
land station Land Station

Pacific - South Coast Area

Another Region

Date modified: